Time;durP1;ratioP1;P1;durP2;ratioP2;P2;SDS_P1;SDS_P2;PMS_P1;PMS_P2;Temp;Humidity;BMP_temperature;BMP_pressure;BME280_temperature;BME280_humidity;BME280_pressure;Samples;Min_cycle;Max_cycle;Signal;HPM_P1;HPM_P2
2020/12/23 00:01:15;;;;;;;3.10;1.10;;;7.80;99.90;;;;;;5078143;28;20222;-84
2020/12/23 00:03:41;;;;;;;1.10;0.90;;;7.80;99.90;;;;;;5075575;28;20924;-82
2020/12/23 00:06:07;;;;;;;0.60;0.60;;;7.80;99.90;;;;;;5077900;28;20192;-83
2020/12/23 00:08:34;;;;;;;1.07;0.70;;;7.80;99.90;;;;;;5074919;28;20245;-83
2020/12/23 00:10:59;;;;;;;1.13;1.03;;;7.80;99.90;;;;;;5074840;28;20212;-84
2020/12/23 00:13:25;;;;;;;0.80;0.80;;;7.80;99.90;;;;;;5075414;28;20694;-83
2020/12/23 00:15:51;;;;;;;0.83;0.80;;;7.80;99.90;;;;;;5078363;28;20596;-82
2020/12/23 00:18:16;;;;;;;0.80;0.70;;;7.80;99.90;;;;;;5074300;28;20189;-82
2020/12/23 00:20:42;;;;;;;2.47;1.60;;;7.80;99.90;;;;;;5078742;28;20184;-84
2020/12/23 00:23:07;;;;;;;1.47;1.13;;;7.70;99.90;;;;;;5075146;28;20558;-81
2020/12/23 00:25:33;;;;;;;1.50;0.90;;;7.70;99.90;;;;;;5076957;28;20693;-86
2020/12/23 00:27:59;;;;;;;1.33;0.90;;;7.60;99.90;;;;;;5075461;28;20189;-83
2020/12/23 00:30:24;;;;;;;0.83;0.80;;;7.60;99.90;;;;;;5074247;28;20189;-83
2020/12/23 00:32:50;;;;;;;3.40;1.10;;;7.60;99.90;;;;;;5075079;28;20868;-84
2020/12/23 00:35:15;;;;;;;1.40;1.23;;;7.60;99.90;;;;;;5076870;28;20230;-83
2020/12/23 00:37:41;;;;;;;1.10;1.00;;;7.60;99.90;;;;;;5077202;28;20184;-84
2020/12/23 00:40:07;;;;;;;2.43;1.37;;;7.60;99.90;;;;;;5075502;28;20192;-81
2020/12/23 00:42:32;;;;;;;1.13;0.77;;;7.70;99.90;;;;;;5075263;28;20204;-85
2020/12/23 00:44:58;;;;;;;1.53;1.10;;;7.70;99.90;;;;;;5075781;28;20189;-84
2020/12/23 00:47:27;;;;;;;2.33;1.40;;;7.60;99.90;;;;;;5076010;28;20855;-84
2020/12/23 00:49:53;;;;;;;1.77;1.17;;;7.60;99.90;;;;;;5083571;28;20185;-84
2020/12/23 00:52:18;;;;;;;1.87;1.60;;;7.70;99.90;;;;;;5074569;28;20220;-84
2020/12/23 00:54:44;;;;;;;1.00;0.93;;;7.60;99.90;;;;;;5075464;28;20217;-84
2020/12/23 00:57:10;;;;;;;1.80;1.63;;;7.70;99.90;;;;;;5073751;28;20601;-84
2020/12/23 00:59:36;;;;;;;1.60;1.10;;;7.60;99.90;;;;;;5076465;28;20676;-85
2020/12/23 01:02:02;;;;;;;1.00;0.90;;;7.70;99.90;;;;;;5075938;28;20262;-83
2020/12/23 01:04:29;;;;;;;1.33;1.10;;;7.80;99.90;;;;;;5077209;28;20274;-84
2020/12/23 01:06:55;;;;;;;1.60;1.00;;;7.80;99.90;;;;;;5075283;28;20271;-84
2020/12/23 01:09:21;;;;;;;2.03;1.50;;;7.80;99.90;;;;;;5074691;28;20235;-81
2020/12/23 01:11:51;;;;;;;1.77;1.23;;;7.80;99.90;;;;;;5074687;28;20204;-84
2020/12/23 01:14:17;;;;;;;1.17;1.03;;;7.80;99.90;;;;;;5076542;28;20204;-82
2020/12/23 01:16:43;;;;;;;0.87;0.83;;;7.80;99.90;;;;;;5072590;28;20193;-83
2020/12/23 01:19:09;;;;;;;0.93;0.80;;;7.80;99.90;;;;;;5078663;28;20192;-83
2020/12/23 01:21:35;;;;;;;1.10;0.90;;;7.80;99.90;;;;;;5078720;28;20193;-80
2020/12/23 01:24:00;;;;;;;1.40;1.30;;;7.80;99.90;;;;;;5079224;28;20550;-81
2020/12/23 01:26:26;;;;;;;1.43;1.00;;;7.80;99.90;;;;;;5079503;28;20189;-84
2020/12/23 01:28:51;;;;;;;1.53;1.27;;;7.80;99.90;;;;;;5079909;28;20816;-82
2020/12/23 01:31:17;;;;;;;1.23;0.80;;;7.80;99.90;;;;;;5080337;28;20193;-83
2020/12/23 01:33:43;;;;;;;2.73;1.00;;;7.80;99.90;;;;;;5079061;28;20646;-83
2020/12/23 01:36:09;;;;;;;1.20;1.00;;;7.80;99.90;;;;;;5079675;28;20189;-84
2020/12/23 01:38:35;;;;;;;1.33;0.90;;;7.80;99.90;;;;;;5086812;28;20192;-85
2020/12/23 01:41:03;;;;;;;1.77;1.03;;;7.80;99.90;;;;;;5079174;28;20182;-81
2020/12/23 01:43:29;;;;;;;1.13;1.00;;;7.80;99.90;;;;;;5079244;28;20216;-85
2020/12/23 01:45:55;;;;;;;1.43;1.10;;;7.80;99.90;;;;;;5077146;28;20566;-87
2020/12/23 01:48:28;;;;;;;1.83;1.10;;;7.80;99.90;;;;;;5086654;28;20274;-84
2020/12/23 01:50:57;;;;;;;3.50;0.87;;;7.80;99.90;;;;;;5080153;28;20242;-84
2020/12/23 01:53:24;;;;;;;1.37;1.27;;;7.90;99.90;;;;;;5078440;28;20717;-80
2020/12/23 01:55:50;;;;;;;1.87;1.40;;;7.90;99.90;;;;;;5081351;28;20220;-85
2020/12/23 01:58:15;;;;;;;1.70;1.60;;;7.90;99.90;;;;;;5079472;28;20185;-86
2020/12/23 02:00:42;;;;;;;3.10;1.30;;;7.90;99.90;;;;;;5075919;28;20177;-82
2020/12/23 02:03:09;;;;;;;3.17;1.47;;;7.90;99.90;;;;;;5075935;28;20274;-81
2020/12/23 02:05:38;;;;;;;1.80;1.27;;;7.90;99.90;;;;;;5075580;28;20189;-82
2020/12/23 02:08:04;;;;;;;1.80;1.70;;;7.90;99.90;;;;;;5077263;28;20189;-81
2020/12/23 02:10:30;;;;;;;3.10;1.47;;;7.80;99.90;;;;;;5076522;28;20327;-84
2020/12/23 02:12:56;;;;;;;1.57;1.17;;;7.80;99.90;;;;;;5077042;28;20221;-84
2020/12/23 02:15:21;;;;;;;1.70;1.10;;;7.80;99.90;;;;;;5077146;28;20196;-83
2020/12/23 02:17:48;;;;;;;2.50;1.40;;;7.80;99.90;;;;;;5075143;28;20740;-82
2020/12/23 02:20:15;;;;;;;1.53;1.10;;;7.80;99.90;;;;;;5067976;28;20272;-82
2020/12/23 02:22:41;;;;;;;2.57;1.50;;;7.80;99.90;;;;;;5074624;28;20209;-81
2020/12/23 02:25:07;;;;;;;2.33;1.60;;;7.80;99.90;;;;;;5077488;28;20247;-82
2020/12/23 02:27:33;;;;;;;1.50;1.20;;;7.70;99.90;;;;;;5078511;28;20236;-83
2020/12/23 02:30:00;;;;;;;3.63;1.43;;;7.70;99.90;;;;;;5076062;28;20644;-81
2020/12/23 02:32:26;;;;;;;3.10;1.27;;;7.70;99.90;;;;;;5077560;28;20206;-82
2020/12/23 02:34:52;;;;;;;1.50;1.23;;;7.70;99.90;;;;;;5075943;28;20213;-82
2020/12/23 02:37:20;;;;;;;1.03;0.93;;;7.70;99.90;;;;;;5076329;28;20708;-82
2020/12/23 02:39:48;;;;;;;2.53;1.43;;;7.60;99.90;;;;;;5075176;28;20217;-82
2020/12/23 02:42:14;;;;;;;1.43;1.20;;;7.60;99.90;;;;;;5078143;28;20209;-83
2020/12/23 02:44:40;;;;;;;1.60;1.20;;;7.60;99.90;;;;;;5078122;28;20195;-82
2020/12/23 02:47:11;;;;;;;1.97;1.57;;;7.60;99.90;;;;;;5075249;28;20193;-82
2020/12/23 02:49:37;;;;;;;2.07;1.47;;;7.60;99.90;;;;;;5076898;28;20264;-82
2020/12/23 02:52:03;;;;;;;2.50;1.33;;;7.60;99.90;;;;;;5075812;28;20240;-82
2020/12/23 02:54:29;;;;;;;1.83;1.43;;;7.60;99.90;;;;;;5075960;28;20212;-80
2020/12/23 02:56:55;;;;;;;2.30;1.63;;;7.60;99.90;;;;;;5074521;28;20193;-83
2020/12/23 02:59:21;;;;;;;2.30;1.60;;;7.60;99.90;;;;;;5073837;28;20181;-82
2020/12/23 03:01:47;;;;;;;2.20;1.37;;;7.60;99.90;;;;;;5074730;28;20213;-83
2020/12/23 03:04:12;;;;;;;1.97;1.50;;;7.60;99.90;;;;;;5075968;28;20219;-83
2020/12/23 03:06:38;;;;;;;2.67;1.90;;;7.60;99.90;;;;;;5073738;28;20197;-82
2020/12/23 03:09:06;;;;;;;2.03;1.60;;;7.60;99.90;;;;;;5074598;28;20196;-82
2020/12/23 03:11:32;;;;;;;1.93;1.23;;;7.60;99.90;;;;;;5075216;28;20288;-81
2020/12/23 03:13:58;;;;;;;2.10;1.90;;;7.60;99.90;;;;;;5076490;28;20766;-81
2020/12/23 03:16:24;;;;;;;2.23;1.70;;;7.60;99.90;;;;;;5075548;28;20195;-81
2020/12/23 03:18:50;;;;;;;1.80;1.50;;;7.70;99.90;;;;;;5075240;28;20614;-82
2020/12/23 03:21:15;;;;;;;2.03;1.83;;;7.70;99.90;;;;;;5074525;28;20211;-82
2020/12/23 03:23:41;;;;;;;3.53;2.10;;;7.70;99.90;;;;;;5083547;28;20266;-82
2020/12/23 03:26:07;;;;;;;3.50;1.60;;;7.80;99.90;;;;;;5082858;28;20194;-82
2020/12/23 03:28:33;;;;;;;2.07;1.27;;;7.70;99.90;;;;;;5074290;28;20264;-81
2020/12/23 03:31:00;;;;;;;2.23;1.50;;;7.70;99.90;;;;;;5075384;28;20607;-84
2020/12/23 03:33:26;;;;;;;2.20;1.67;;;7.70;99.90;;;;;;5075186;28;20312;-82
2020/12/23 03:35:52;;;;;;;2.17;1.90;;;7.80;99.90;;;;;;5074711;28;20722;-80
2020/12/23 03:38:18;;;;;;;2.27;1.70;;;7.80;99.90;;;;;;5082696;28;20188;-82
2020/12/23 03:40:44;;;;;;;3.10;2.03;;;7.80;99.90;;;;;;5075148;28;20208;-80
2020/12/23 03:43:09;;;;;;;2.50;1.40;;;7.80;99.90;;;;;;5076502;28;20667;-82
2020/12/23 03:45:35;;;;;;;1.90;1.53;;;7.80;99.90;;;;;;5074200;28;20192;-82
2020/12/23 03:48:01;;;;;;;3.30;1.70;;;7.80;99.90;;;;;;5075297;28;20655;-81
2020/12/23 03:50:26;;;;;;;2.97;2.00;;;7.80;99.90;;;;;;5075201;28;20591;-81
2020/12/23 03:52:52;;;;;;;2.20;1.83;;;7.80;99.90;;;;;;5074627;28;20240;-83
2020/12/23 03:55:17;;;;;;;3.40;1.80;;;7.70;99.90;;;;;;5076191;28;20282;-83
2020/12/23 03:57:43;;;;;;;2.43;2.00;;;7.70;99.90;;;;;;5074810;28;20280;-83
2020/12/23 04:00:10;;;;;;;2.97;2.07;;;7.80;99.90;;;;;;5075233;28;20187;-84
2020/12/23 04:02:36;;;;;;;3.70;1.90;;;7.70;99.90;;;;;;5074538;28;20874;-80
2020/12/23 04:05:02;;;;;;;3.70;2.30;;;7.80;99.90;;;;;;5074044;28;20200;-83
2020/12/23 04:07:28;;;;;;;2.87;1.83;;;7.80;99.90;;;;;;5074092;28;20191;-80
2020/12/23 04:09:54;;;;;;;2.70;1.93;;;7.80;99.90;;;;;;5075355;28;20280;-82
2020/12/23 04:12:20;;;;;;;2.67;2.03;;;7.80;99.90;;;;;;5075398;28;20208;-83
2020/12/23 04:14:46;;;;;;;3.80;2.37;;;7.80;99.90;;;;;;5074070;28;20232;-82
2020/12/23 04:17:11;;;;;;;3.67;2.50;;;7.80;99.90;;;;;;5075701;28;20216;-82
2020/12/23 04:19:37;;;;;;;4.00;2.53;;;7.90;99.90;;;;;;5073676;28;20192;-82
2020/12/23 04:22:03;;;;;;;4.27;2.73;;;7.80;99.90;;;;;;5065510;28;20212;-81
2020/12/23 04:24:28;;;;;;;5.47;3.60;;;7.90;99.90;;;;;;5073099;28;20185;-79
2020/12/23 04:26:54;;;;;;;3.97;2.70;;;7.90;99.90;;;;;;5074192;28;20224;-81
2020/12/23 04:29:19;;;;;;;3.87;2.73;;;7.90;99.90;;;;;;5075172;28;20246;-82
2020/12/23 04:31:45;;;;;;;4.47;2.33;;;7.80;99.90;;;;;;5073450;28;20298;-82
2020/12/23 04:34:11;;;;;;;4.47;3.00;;;7.80;99.90;;;;;;5075157;28;20204;-80
2020/12/23 04:36:36;;;;;;;5.77;3.63;;;7.90;99.90;;;;;;5075505;28;20196;-83
2020/12/23 04:39:02;;;;;;;5.30;3.27;;;7.80;99.90;;;;;;5072806;28;20188;-81
2020/12/23 04:41:28;;;;;;;7.10;3.20;;;7.80;99.90;;;;;;5074207;28;20189;-84
2020/12/23 04:43:54;;;;;;;4.27;2.83;;;7.80;99.90;;;;;;5073045;28;20249;-83
2020/12/23 04:46:24;;;;;;;5.80;3.13;;;7.80;99.90;;;;;;5073726;28;20232;-81
2020/12/23 04:48:57;;;;;;;5.87;3.63;;;7.80;99.90;;;;;;5076011;28;20238;-82
2020/12/23 04:51:41;;;;;;;5.23;2.87;;;7.80;99.90;;;;;;5074183;28;20193;-81
2020/12/23 04:54:08;;;;;;;5.10;2.63;;;7.80;99.90;;;;;;5073122;28;20239;-83
2020/12/23 04:56:35;;;;;;;4.20;2.77;;;7.80;99.90;;;;;;5074481;28;20264;-82
2020/12/23 04:59:02;;;;;;;2.90;2.20;;;7.80;99.90;;;;;;5072154;28;20228;-82
2020/12/23 05:01:28;;;;;;;4.00;2.63;;;7.80;99.90;;;;;;5075250;28;20554;-81
2020/12/23 05:03:55;;;;;;;6.83;2.70;;;7.70;99.90;;;;;;5073321;28;20196;-81
2020/12/23 05:06:22;;;;;;;2.70;1.97;;;7.70;99.90;;;;;;5073020;28;20203;-83
2020/12/23 05:08:48;;;;;;;5.33;3.03;;;7.70;99.90;;;;;;5073456;28;20663;-84
2020/12/23 05:11:14;;;;;;;1.97;1.80;;;7.70;99.90;;;;;;5074793;28;20271;-82
2020/12/23 05:13:41;;;;;;;3.80;2.77;;;7.70;99.90;;;;;;5073555;28;20745;-82
2020/12/23 05:16:09;;;;;;;4.20;2.50;;;7.70;99.90;;;;;;5071885;28;20196;-81
2020/12/23 05:18:37;;;;;;;2.57;2.33;;;7.70;99.90;;;;;;5073932;28;20699;-82
2020/12/23 05:21:15;;;;;;;3.00;2.13;;;7.70;99.90;;;;;;5072852;28;20197;-82
2020/12/23 05:23:45;;;;;;;4.03;3.07;;;7.70;99.90;;;;;;5071968;28;20212;-83
2020/12/23 05:26:12;;;;;;;3.77;2.20;;;7.70;99.90;;;;;;5071841;28;20244;-82
2020/12/23 05:28:39;;;;;;;3.90;2.33;;;7.70;99.90;;;;;;5072004;28;20193;-83
2020/12/23 05:31:14;;;;;;;2.03;1.53;;;7.70;99.90;;;;;;5073081;28;20728;-84
2020/12/23 05:33:41;;;;;;;3.90;2.07;;;7.70;99.90;;;;;;5073637;28;20699;-82
2020/12/23 05:36:13;;;;;;;4.27;1.90;;;7.70;99.90;;;;;;5073185;28;20654;-84
2020/12/23 05:38:39;;;;;;;3.17;2.20;;;7.60;99.90;;;;;;5074990;28;20181;-81
2020/12/23 05:41:07;;;;;;;2.03;1.83;;;7.70;99.90;;;;;;5074506;28;20275;-82
2020/12/23 05:43:33;;;;;;;3.80;2.20;;;7.70;99.90;;;;;;5073043;28;20718;-81
2020/12/23 05:46:00;;;;;;;10.80;2.13;;;7.70;99.90;;;;;;5072903;28;20193;-81
2020/12/23 05:48:28;;;;;;;2.90;1.70;;;7.70;99.90;;;;;;5064866;28;20199;-81
2020/12/23 05:50:53;;;;;;;3.03;2.47;;;7.70;99.90;;;;;;5073813;28;20189;-81
2020/12/23 05:53:19;;;;;;;3.77;2.40;;;7.70;99.90;;;;;;5073900;28;20324;-82
2020/12/23 05:55:49;;;;;;;4.37;2.67;;;7.60;99.90;;;;;;5073410;28;20542;-79
2020/12/23 05:58:21;;;;;;;5.90;2.20;;;7.60;99.90;;;;;;5072995;28;20238;-79
2020/12/23 06:00:48;;;;;;;2.33;1.70;;;7.60;99.90;;;;;;5073964;28;20256;-82
2020/12/23 06:03:20;;;;;;;4.93;2.20;;;7.60;99.90;;;;;;5072953;28;20305;-83
2020/12/23 06:05:58;;;;;;;3.43;2.43;;;7.60;99.90;;;;;;5064266;28;20189;-84
2020/12/23 06:08:38;;;;;;;2.53;2.27;;;7.50;99.90;;;;;;5073083;28;20666;-81
2020/12/23 06:11:28;;;;;;;2.37;2.13;;;7.50;99.90;;;;;;5068048;28;20241;-82
2020/12/23 06:13:56;;;;;;;3.80;2.73;;;7.60;99.90;;;;;;5084771;28;20211;-82
2020/12/23 06:16:31;;;;;;;4.80;2.67;;;7.60;99.90;;;;;;5076585;28;21213;-82
2020/12/23 06:19:00;;;;;;;2.43;1.77;;;7.60;99.90;;;;;;5075375;28;20193;-82
2020/12/23 06:21:27;;;;;;;4.50;2.13;;;7.60;99.90;;;;;;5084615;28;20704;-83
2020/12/23 06:24:04;;;;;;;4.83;2.23;;;7.60;99.90;;;;;;5076082;28;20188;-82
2020/12/23 06:26:32;;;;;;;4.30;3.37;;;7.60;99.90;;;;;;5074803;28;20189;-82
2020/12/23 06:28:59;;;;;;;3.53;2.30;;;7.60;99.90;;;;;;5077471;28;20187;-82
2020/12/23 06:31:31;;;;;;;4.30;3.27;;;7.60;99.90;;;;;;5083705;28;20193;-83
2020/12/23 06:33:58;;;;;;;3.33;2.37;;;7.60;99.90;;;;;;5076872;28;20204;-84
2020/12/23 06:36:34;;;;;;;4.13;3.00;;;7.60;99.90;;;;;;5076478;28;20181;-82
2020/12/23 06:39:18;;;;;;;4.23;2.30;;;7.60;99.90;;;;;;5067584;28;20192;-82
2020/12/23 06:41:59;;;;;;;4.23;3.10;;;7.60;99.90;;;;;;5093494;28;20265;-80
2020/12/23 06:44:25;;;;;;;3.90;2.47;;;7.60;99.90;;;;;;5083769;28;20288;-83
2020/12/23 06:47:00;;;;;;;4.47;3.57;;;7.60;99.90;;;;;;5075423;28;20196;-83
2020/12/23 06:49:48;;;;;;;4.40;2.90;;;7.60;99.90;;;;;;5084712;28;20250;-83
2020/12/23 06:52:29;;;;;;;4.27;2.60;;;7.60;99.90;;;;;;5083335;28;20304;-82
2020/12/23 06:54:55;;;;;;;3.07;2.00;;;7.60;99.90;;;;;;5090605;28;20214;-81
2020/12/23 06:57:36;;;;;;;5.57;3.73;;;7.60;99.90;;;;;;5091791;28;20219;-81
2020/12/23 07:00:20;;;;;;;3.77;2.93;;;7.60;99.90;;;;;;5076124;28;20180;-81
2020/12/23 07:02:48;;;;;;;5.33;3.47;;;7.60;99.90;;;;;;5092628;28;20314;-81
2020/12/23 07:05:23;;;;;;;5.47;3.03;;;7.60;99.90;;;;;;5077406;28;20193;-82
2020/12/23 07:07:56;;;;;;;3.27;2.50;;;7.60;99.90;;;;;;5074988;28;20242;-82
2020/12/23 07:10:23;;;;;;;5.20;4.10;;;7.60;99.90;;;;;;5076567;28;20194;-83
2020/12/23 07:13:02;;;;;;;5.27;3.57;;;7.60;99.90;;;;;;5074515;28;20583;-83
2020/12/23 07:15:30;;;;;;;4.33;3.03;;;7.70;99.90;;;;;;5061858;28;20223;-79
2020/12/23 07:18:09;;;;;;;4.97;3.00;;;7.70;99.90;;;;;;5068829;28;20647;-82
2020/12/23 07:20:45;;;;;;;8.67;4.33;;;7.70;99.90;;;;;;5082394;28;20187;-78
2020/12/23 07:23:13;;;;;;;7.40;4.13;;;7.60;99.90;;;;;;5082388;28;20212;-83
2020/12/23 07:25:46;;;;;;;5.40;3.90;;;7.60;99.90;;;;;;5070872;28;20189;-82
2020/12/23 07:28:17;;;;;;;8.53;4.07;;;7.60;99.90;;;;;;5068582;28;20221;-82
2020/12/23 07:30:42;;;;;;;5.53;3.27;;;7.60;99.90;;;;;;5066093;28;20232;-82
2020/12/23 07:33:17;;;;;;;5.30;3.13;;;7.60;99.90;;;;;;5074412;28;21114;-82
2020/12/23 07:35:47;;;;;;;6.53;4.27;;;7.70;99.90;;;;;;5076092;28;20234;-83
2020/12/23 07:38:14;;;;;;;5.10;3.17;;;7.70;99.90;;;;;;5076876;28;20208;-83
2020/12/23 07:40:40;;;;;;;4.10;2.90;;;7.70;99.90;;;;;;5077115;28;20200;-82
2020/12/23 07:43:06;;;;;;;50.33;28.40;;;7.70;99.90;;;;;;5075006;28;20690;-82
2020/12/23 07:45:33;;;;;;;86.37;44.90;;;7.70;99.90;;;;;;5073580;28;20190;-81
2020/12/23 07:48:04;;;;;;;22.50;14.30;;;7.70;99.90;;;;;;5076000;28;20173;-81
2020/12/23 07:50:33;;;;;;;14.03;10.63;;;7.70;99.90;;;;;;5083270;28;20186;-83
2020/12/23 07:53:28;;;;;;;9.50;7.30;;;7.70;99.90;;;;;;5077057;28;20197;-83
2020/12/23 07:56:05;;;;;;;6.70;4.13;;;7.80;99.90;;;;;;5072499;28;20715;-80
2020/12/23 07:58:32;;;;;;;3.57;2.77;;;7.70;99.90;;;;;;5077869;28;20259;-84
2020/12/23 08:00:58;;;;;;;9.93;6.37;;;7.80;99.90;;;;;;5074437;28;20570;-83
2020/12/23 08:03:27;;;;;;;7.67;5.50;;;7.80;99.90;;;;;;5074935;28;20221;-82
2020/12/23 08:06:12;;;;;;;10.50;5.90;;;7.70;99.90;;;;;;5079113;28;20177;-78
2020/12/23 08:08:40;;;;;;;9.33;6.10;;;7.80;99.90;;;;;;5081118;28;20935;-79
2020/12/23 08:11:13;;;;;;;6.67;4.47;;;7.80;99.90;;;;;;5079859;28;20192;-78
2020/12/23 08:13:39;;;;;;;7.77;5.23;;;7.80;99.90;;;;;;5080666;28;20232;-78
2020/12/23 08:16:13;;;;;;;7.60;5.53;;;7.80;99.90;;;;;;5079448;28;20690;-79
2020/12/23 08:18:40;;;;;;;6.47;4.07;;;7.90;99.90;;;;;;5088127;28;20208;-80
2020/12/23 08:21:19;;;;;;;6.07;4.07;;;7.90;99.90;;;;;;5080933;28;20196;-79
2020/12/23 08:23:49;;;;;;;5.70;4.23;;;7.90;99.90;;;;;;5080494;28;20201;-79
2020/12/23 08:26:15;;;;;;;5.27;3.70;;;7.90;99.90;;;;;;5083628;28;20200;-79
2020/12/23 08:28:43;;;;;;;4.67;3.93;;;7.90;99.90;;;;;;5081324;28;20189;-77
2020/12/23 08:31:16;;;;;;;8.43;5.57;;;7.90;99.90;;;;;;5071414;28;20184;-79
2020/12/23 08:33:43;;;;;;;6.77;4.77;;;7.90;99.90;;;;;;5078245;28;20209;-80
2020/12/23 08:36:09;;;;;;;6.00;4.33;;;7.90;99.90;;;;;;5078597;28;20185;-77
2020/12/23 08:38:36;;;;;;;6.37;4.00;;;7.90;99.90;;;;;;5077718;28;20780;-78
2020/12/23 08:41:02;;;;;;;7.73;5.07;;;7.80;99.90;;;;;;5071685;28;20181;-82
2020/12/23 08:43:29;;;;;;;8.53;6.27;;;7.80;99.90;;;;;;5070507;28;20208;-82
2020/12/23 08:45:59;;;;;;;6.47;5.37;;;7.80;99.90;;;;;;5071575;28;20196;-82
2020/12/23 08:48:27;;;;;;;5.80;4.73;;;7.90;99.90;;;;;;5071077;28;20268;-83
2020/12/23 08:50:58;;;;;;;6.03;4.63;;;7.90;99.90;;;;;;5080803;28;20193;-82
2020/12/23 08:53:33;;;;;;;8.43;7.00;;;7.90;99.90;;;;;;5081772;28;20215;-78
2020/12/23 08:56:00;;;;;;;10.97;6.10;;;7.90;99.90;;;;;;5072682;28;20613;-78
2020/12/23 08:58:26;;;;;;;12.73;9.23;;;7.90;99.90;;;;;;5073391;28;20181;-78
2020/12/23 09:00:59;;;;;;;10.93;7.30;;;8.00;99.90;;;;;;5076313;28;20181;-78
2020/12/23 09:03:25;;;;;;;12.10;6.63;;;8.00;99.90;;;;;;5077154;28;20252;-79
2020/12/23 09:05:56;;;;;;;8.73;6.83;;;8.00;99.90;;;;;;5076942;28;20216;-79
2020/12/23 09:08:24;;;;;;;8.27;6.20;;;8.10;99.90;;;;;;5074732;28;20191;-79
2020/12/23 09:10:57;;;;;;;9.40;5.90;;;8.10;99.90;;;;;;5074791;28;20181;-79
2020/12/23 09:13:33;;;;;;;9.20;5.00;;;8.10;99.90;;;;;;5075213;28;20702;-84
2020/12/23 09:15:59;;;;;;;8.63;5.50;;;8.20;99.90;;;;;;5079733;28;20223;-82
2020/12/23 09:18:26;;;;;;;11.57;6.67;;;8.20;99.90;;;;;;5071673;28;20621;-81
2020/12/23 09:20:59;;;;;;;10.70;6.97;;;8.10;99.90;;;;;;5072796;28;20705;-81
2020/12/23 09:23:25;;;;;;;9.73;5.90;;;8.20;99.90;;;;;;5071899;28;20233;-82
2020/12/23 09:25:51;;;;;;;10.23;6.40;;;8.30;99.90;;;;;;5075179;28;20274;-84
2020/12/23 09:28:17;;;;;;;12.60;9.37;;;8.20;99.90;;;;;;5080574;28;20994;-82
2020/12/23 09:30:46;;;;;;;10.30;6.30;;;8.20;99.90;;;;;;5070297;28;20262;-82
2020/12/23 09:33:12;;;;;;;21.57;12.93;;;8.20;99.90;;;;;;5077888;28;20209;-82
2020/12/23 09:35:39;;;;;;;11.60;6.50;;;8.20;99.90;;;;;;5080246;28;21047;-84
2020/12/23 09:38:09;;;;;;;8.73;5.27;;;8.20;99.90;;;;;;5070841;28;20208;-83
2020/12/23 09:40:37;;;;;;;10.67;6.20;;;8.20;99.90;;;;;;5077923;28;20241;-84
2020/12/23 09:43:11;;;;;;;10.27;5.97;;;8.20;99.90;;;;;;5075907;28;20209;-84
2020/12/23 09:45:37;;;;;;;8.00;5.33;;;8.30;99.90;;;;;;5075513;28;20197;-84
2020/12/23 09:48:02;;;;;;;9.93;6.60;;;8.20;99.90;;;;;;5075182;28;20550;-85
2020/12/23 09:50:28;;;;;;;11.03;6.10;;;8.30;99.90;;;;;;5070727;28;20185;-82
2020/12/23 09:52:53;;;;;;;10.60;6.40;;;8.30;99.90;;;;;;5076739;28;20238;-76
2020/12/23 09:55:19;;;;;;;9.23;5.23;;;8.30;99.90;;;;;;5066842;28;20282;-83
2020/12/23 09:57:45;;;;;;;10.17;6.00;;;8.30;99.90;;;;;;5069577;28;20200;-83
2020/12/23 10:00:10;;;;;;;10.40;5.97;;;8.40;99.90;;;;;;5074248;28;20279;-83
2020/12/23 10:02:36;;;;;;;9.33;6.30;;;8.40;99.90;;;;;;5072396;28;20274;-87
2020/12/23 10:05:02;;;;;;;12.70;8.70;;;8.40;99.90;;;;;;5073757;28;20243;-82
2020/12/23 10:07:28;;;;;;;13.73;7.50;;;8.40;99.90;;;;;;5075452;28;20245;-80
2020/12/23 10:09:53;;;;;;;10.60;6.03;;;8.40;99.90;;;;;;5072747;28;20188;-83
2020/12/23 10:12:39;;;;;;;9.30;5.47;;;8.40;99.90;;;;;;5074944;28;20270;-83
2020/12/23 10:15:49;;;;;;;11.47;6.17;;;8.40;99.90;;;;;;5071920;28;20709;-84
2020/12/23 10:18:15;;;;;;;10.77;5.17;;;8.40;99.90;;;;;;5075952;28;20688;-82
2020/12/23 10:20:40;;;;;;;11.90;6.17;;;8.40;99.90;;;;;;5069878;28;20226;-84
2020/12/23 10:23:06;;;;;;;9.57;6.13;;;8.40;99.90;;;;;;5069238;28;20584;-82
2020/12/23 10:25:34;;;;;;;10.57;5.37;;;8.50;99.90;;;;;;5069755;28;20246;-82
2020/12/23 10:28:00;;;;;;;10.60;6.63;;;8.40;99.90;;;;;;5067190;28;20186;-82
2020/12/23 10:30:25;;;;;;;10.73;6.77;;;8.50;99.90;;;;;;5073452;28;20184;-82
2020/12/23 10:32:51;;;;;;;9.77;7.17;;;8.50;99.90;;;;;;5073672;28;20212;-82
2020/12/23 10:35:16;;;;;;;10.27;6.20;;;8.50;99.90;;;;;;5079065;28;20217;-79
2020/12/23 10:37:42;;;;;;;9.87;5.57;;;8.60;99.90;;;;;;5074061;28;20193;-80
2020/12/23 10:40:08;;;;;;;9.47;6.30;;;8.60;99.90;;;;;;5079162;28;20268;-81
2020/12/23 10:42:33;;;;;;;9.80;6.77;;;8.70;99.90;;;;;;5071345;28;20228;-81
2020/12/23 10:44:59;;;;;;;10.03;6.30;;;8.70;99.90;;;;;;5077486;28;20662;-82
2020/12/23 10:47:24;;;;;;;7.33;4.67;;;8.70;99.90;;;;;;5071238;28;20193;-80
2020/12/23 10:49:50;;;;;;;9.37;6.17;;;8.80;99.90;;;;;;5077347;28;20358;-82
2020/12/23 10:52:16;;;;;;;9.67;6.93;;;8.90;99.90;;;;;;5074834;28;20642;-81
2020/12/23 10:54:42;;;;;;;9.90;6.00;;;9.00;99.90;;;;;;5073669;28;20303;-81
2020/12/23 10:57:08;;;;;;;10.93;6.67;;;9.00;99.90;;;;;;5064077;28;20943;-80
2020/12/23 10:59:33;;;;;;;11.50;6.93;;;9.00;99.90;;;;;;5071140;28;20204;-82
2020/12/23 11:01:59;;;;;;;10.33;8.70;;;9.00;99.90;;;;;;5079928;28;20252;-79
2020/12/23 11:04:24;;;;;;;8.60;6.17;;;9.10;99.90;;;;;;5079140;28;20238;-79
2020/12/23 11:06:51;;;;;;;11.57;5.77;;;9.00;99.90;;;;;;5064222;28;20193;-80
2020/12/23 11:09:17;;;;;;;11.33;6.97;;;9.10;99.90;;;;;;5064704;28;20196;-81
2020/12/23 11:11:47;;;;;;;7.67;5.37;;;9.10;99.90;;;;;;5070395;28;20197;-81
2020/12/23 11:14:13;;;;;;;8.13;4.00;;;9.00;99.90;;;;;;5076480;28;20253;-81
2020/12/23 11:16:39;;;;;;;6.90;5.53;;;9.00;99.90;;;;;;5070327;28;20228;-76
2020/12/23 11:19:04;;;;;;;14.57;8.80;;;9.00;99.90;;;;;;5076187;28;20194;-81
2020/12/23 11:21:33;;;;;;;12.30;5.73;;;9.00;99.90;;;;;;5075299;28;20191;-80
2020/12/23 11:23:58;;;;;;;12.23;7.37;;;9.00;99.90;;;;;;5076803;28;20780;-81
2020/12/23 11:26:24;;;;;;;12.70;7.53;;;9.00;99.90;;;;;;5078948;28;20271;-80
2020/12/23 11:28:49;;;;;;;10.97;5.73;;;9.00;99.90;;;;;;5067274;28;20193;-80
2020/12/23 11:31:15;;;;;;;13.77;6.70;;;9.10;99.90;;;;;;5068100;28;20197;-80
2020/12/23 11:33:42;;;;;;;13.37;7.50;;;9.10;99.90;;;;;;5070724;28;20295;-81
2020/12/23 11:36:07;;;;;;;9.07;6.60;;;9.20;99.90;;;;;;5078495;28;20216;-80
2020/12/23 11:38:33;;;;;;;7.97;5.03;;;9.20;99.90;;;;;;5069611;28;20224;-80
2020/12/23 11:40:59;;;;;;;8.53;4.40;;;9.20;99.90;;;;;;5066786;28;20189;-81
2020/12/23 11:43:25;;;;;;;12.60;6.60;;;9.30;99.90;;;;;;5069286;28;20303;-81
2020/12/23 11:45:51;;;;;;;10.07;6.70;;;9.40;99.90;;;;;;5062464;28;20284;-81
2020/12/23 11:48:16;;;;;;;7.23;4.53;;;9.40;99.90;;;;;;5077324;28;20193;-81
2020/12/23 11:50:42;;;;;;;9.87;5.30;;;9.40;99.90;;;;;;5065588;28;20207;-82
2020/12/23 11:53:09;;;;;;;9.10;5.70;;;9.40;99.90;;;;;;5072232;28;20209;-82
2020/12/23 11:55:35;;;;;;;10.50;6.33;;;9.30;99.90;;;;;;5074862;28;20209;-81
2020/12/23 11:58:00;;;;;;;13.90;8.50;;;9.30;99.90;;;;;;5070304;28;20224;-81
2020/12/23 12:00:26;;;;;;;9.80;7.60;;;9.20;99.90;;;;;;5065648;28;20320;-82
2020/12/23 12:02:52;;;;;;;11.73;6.53;;;9.20;99.90;;;;;;5069062;28;20999;-82
2020/12/23 12:05:17;;;;;;;12.93;5.70;;;9.10;99.90;;;;;;5074372;28;20193;-82
2020/12/23 12:07:43;;;;;;;7.80;4.60;;;9.10;99.90;;;;;;5074234;28;20197;-82
2020/12/23 12:10:09;;;;;;;10.93;6.20;;;9.10;99.90;;;;;;5073609;28;20287;-82
2020/12/23 12:12:35;;;;;;;11.03;6.67;;;9.10;99.90;;;;;;5064359;28;20217;-80
2020/12/23 12:15:02;;;;;;;9.17;4.73;;;9.10;99.90;;;;;;5075947;28;20217;-80
2020/12/23 12:17:28;;;;;;;8.00;6.10;;;9.20;99.90;;;;;;5076114;28;20219;-81
2020/12/23 12:19:54;;;;;;;8.93;5.57;;;9.10;99.90;;;;;;5067625;28;20677;-81
2020/12/23 12:22:20;;;;;;;7.87;4.73;;;9.20;99.90;;;;;;5073968;28;20215;-81
2020/12/23 12:24:45;;;;;;;7.73;5.00;;;9.20;99.90;;;;;;5075589;28;20185;-80
2020/12/23 12:27:11;;;;;;;8.30;5.40;;;9.20;99.90;;;;;;5068787;28;20193;-81
2020/12/23 12:29:38;;;;;;;5.70;4.30;;;9.20;99.90;;;;;;5067859;28;20666;-81
2020/12/23 12:32:04;;;;;;;8.83;4.83;;;9.30;99.90;;;;;;5073879;28;20224;-80
2020/12/23 12:34:29;;;;;;;8.80;5.33;;;9.30;99.90;;;;;;5070754;28;20237;-81
2020/12/23 12:36:55;;;;;;;11.23;5.70;;;9.30;99.90;;;;;;5076951;28;20559;-81
2020/12/23 12:39:22;;;;;;;9.07;5.90;;;9.20;99.90;;;;;;5074473;28;20185;-80
2020/12/23 12:41:47;;;;;;;6.03;4.47;;;9.30;99.90;;;;;;5073441;28;20293;-81
2020/12/23 12:44:13;;;;;;;8.70;3.97;;;9.20;99.90;;;;;;5075498;28;20650;-80
2020/12/23 12:46:38;;;;;;;21.40;15.67;;;9.20;99.90;;;;;;5072887;28;20204;-81
2020/12/23 12:49:04;;;;;;;21.53;16.80;;;9.30;99.90;;;;;;5075032;28;20646;-80
2020/12/23 12:51:30;;;;;;;8.43;6.00;;;9.20;99.90;;;;;;5076089;28;20181;-80
2020/12/23 12:53:56;;;;;;;8.57;5.57;;;9.20;99.90;;;;;;5074463;28;20228;-78
2020/12/23 12:56:30;;;;;;;9.27;5.63;;;9.30;99.90;;;;;;5075164;28;20176;-80
2020/12/23 12:58:57;;;;;;;6.77;4.87;;;9.30;99.90;;;;;;5074120;28;20184;-82